Citta Di Savona — IMDS — position and weather

sailwx.info

Track history (hours):
 
Tides and Currents Weather Stations Pressure Air Temp Water Temp Dewpoint Dewpoint Depression Visibility Wind Speed Wind Dir Waves Ship Positions

Citta Di Savona

Last reported at 2016-Aug-25 12:29 UTC. Time now 2016-Aug-25 13:10 UTC.
Position N 44°18' E 008°29'.

Length 31 m; draft 4.2 m.

Type: Tug. MMSI: 247402000.

Date/timePositionNaut miles runAvg speedWind from/ knotsBaromVisibWave heightAir tempDewpointWater temp
2016-Aug-25 12:29N 44°18' E 008°29'0 0.0
2016-Aug-24 17:29N 44°18' E 008°29'0 0.0
2016-Aug-24 16:29N 44°18' E 008°29'0 0.0
2016-Aug-24 15:29N 44°18' E 008°29'0 0.0
2016-Aug-24 14:29N 44°18' E 008°29'0 0.0
2016-Aug-24 13:29N 44°18' E 008°29'0 0.0
2016-Aug-24 12:29N 44°18' E 008°29'0 0.0
2016-Aug-24 11:29N 44°18' E 008°29'0 0.0
2016-Aug-24 10:29N 44°18' E 008°29'0 0.0
2016-Aug-24 09:29N 44°18' E 008°29'0 0.0
2016-Aug-24 08:29N 44°18' E 008°29'0 0.0
2016-Aug-24 07:29N 44°18' E 008°29'0 0.0
2016-Aug-24 06:29N 44°18' E 008°29'0 0.0
2016-Aug-24 04:29N 44°18' E 008°29'0 0.0
2016-Aug-24 03:29N 44°18' E 008°29'0 0.0
2016-Aug-23 21:28N 44°18' E 008°29'0 0.0
2016-Aug-23 20:28N 44°18' E 008°29'0 0.0
2016-Aug-23 19:28N 44°18' E 008°29'0 0.0
2016-Aug-23 18:28N 44°18' E 008°29'0 0.0
2016-Aug-23 17:28N 44°18' E 008°29'0 0.0
2016-Aug-23 16:31N 44°18' E 008°29'0 0.0
2016-Aug-23 15:32N 44°18' E 008°29'0 0.0
2016-Aug-23 14:29N 44°18' E 008°29'0 0.0
2016-Aug-23 13:29N 44°18' E 008°29'0 0.0
2016-Aug-23 12:32N 44°18' E 008°29'0 0.0
2016-Aug-23 11:29N 44°18' E 008°29'0 0.0
2016-Aug-23 03:30N 44°18' E 008°29'2 2.2
2016-Aug-23 02:33N 44°17' E 008°28'2 1.7
2016-Aug-23 01:33N 44°18' E 008°29'1 0.0
2016-Aug-22 13:27N 44°18' E 008°29'0 0.0
2016-Aug-22 12:33N 44°18' E 008°29'0 0.0
2016-Aug-22 11:33N 44°18' E 008°29'0 0.0
2016-Aug-22 10:33N 44°18' E 008°29'1 0.9
2016-Aug-22 09:33N 44°19' E 008°30'3 2.8
2016-Aug-22 08:33N 44°17' E 008°28'0 0.3
2016-Aug-22 07:33N 44°17' E 008°28'1 1.1
2016-Aug-22 06:33N 44°16' E 008°28'3 2.9
2016-Aug-22 05:33N 44°18' E 008°30'1 0.9
2016-Aug-22 04:33N 44°19' E 008°30'1 0.1
2016-Aug-21 21:34N 44°18' E 008°29'0 0.0
2016-Aug-21 20:34N 44°18' E 008°29'0 0.0
2016-Aug-21 19:34N 44°18' E 008°29'0 0.0
2016-Aug-21 18:34N 44°18' E 008°29'0 0.0
2016-Aug-21 17:34N 44°18' E 008°29'0 0.0
2016-Aug-21 16:31N 44°18' E 008°29'0 0.0
2016-Aug-21 15:34N 44°18' E 008°29'0 0.0
2016-Aug-21 14:34N 44°18' E 008°29'0 0.0
2016-Aug-21 13:34N 44°18' E 008°29'0 0.0
2016-Aug-21 12:32N 44°18' E 008°29'0 0.0
2016-Aug-21 07:33N 44°18' E 008°29'0 0.0
2016-Aug-21 06:33N 44°18' E 008°29'0 0.0
2016-Aug-21 05:33N 44°18' E 008°29'0 0.0
2016-Aug-21 04:33N 44°18' E 008°29'0 0.0
2016-Aug-21 03:33N 44°18' E 008°29'0 0.0
2016-Aug-21 02:33N 44°18' E 008°29'0 0.0
2016-Aug-21 01:34N 44°18' E 008°29'0 0.0
2016-Aug-21 00:33N 44°18' E 008°29'0 0.0
2016-Aug-20 23:33N 44°18' E 008°29'0 0.0
2016-Aug-20 22:33N 44°18' E 008°29'0 0.0
2016-Aug-20 21:34N 44°18' E 008°29'0 0.0
2016-Aug-20 12:33N 44°18' E 008°29'0 0.0
2016-Aug-20 11:33N 44°18' E 008°29'0 0.0
2016-Aug-20 10:23N 44°18' E 008°29'0 0.0
2016-Aug-20 09:33N 44°18' E 008°29'0 0.0
2016-Aug-20 08:33N 44°18' E 008°29'0 0.0
2016-Aug-20 07:33N 44°18' E 008°29'0 0.0
2016-Aug-20 06:33N 44°18' E 008°29'0 0.0
2016-Aug-20 05:33N 44°18' E 008°29'0 0.0
2016-Aug-20 04:33N 44°18' E 008°29'0 0.0
2016-Aug-19 17:15N 44°18' E 008°29'0 0.0
2016-Aug-19 16:33N 44°18' E 008°29'1 0.6
2016-Aug-19 15:34N 44°19' E 008°30'1 0.6
2016-Aug-19 14:33N 44°18' E 008°29'0 0.0
2016-Aug-19 13:33N 44°18' E 008°29'0 0.0
2016-Aug-19 12:33N 44°18' E 008°29'0 0.0
2016-Aug-19 07:33N 44°18' E 008°29'0 0.0
2016-Aug-19 06:33N 44°18' E 008°29'0 0.0
2016-Aug-19 05:33N 44°18' E 008°29'1 0.8
2016-Aug-19 04:33N 44°19' E 008°30'1 0.8
2016-Aug-19 03:33N 44°18' E 008°29'0 0.0
2016-Aug-19 02:33N 44°18' E 008°29'0 0.0
2016-Aug-19 01:33N 44°18' E 008°29'0 0.0
2016-Aug-19 00:33N 44°18' E 008°29'0 0.0
2016-Aug-18 23:33N 44°18' E 008°29'0 0.0
2016-Aug-18 22:33N 44°18' E 008°29'0 0.0
2016-Aug-18 21:33N 44°18' E 008°29'0 0.0
2016-Aug-18 20:33N 44°18' E 008°29'0 0.0
2016-Aug-18 19:33N 44°18' E 008°29'0 0.0
2016-Aug-18 18:33N 44°18' E 008°29'0 0.0
2016-Aug-18 17:33N 44°18' E 008°29'0 0.0
2016-Aug-18 16:33N 44°18' E 008°29'0 0.0
2016-Aug-18 15:33N 44°18' E 008°29'0 0.0
2016-Aug-18 14:33N 44°18' E 008°29'0 0.0
2016-Aug-18 13:33N 44°18' E 008°29'0 0.0
2016-Aug-18 12:33N 44°18' E 008°29'0 0.0
2016-Aug-18 11:33N 44°18' E 008°29'1 0.5
2016-Aug-18 10:33N 44°19' E 008°30'1 0.2
2016-Aug-18 07:34N 44°18' E 008°29'1 0.7
2016-Aug-18 06:33N 44°19' E 008°30'3 3.4
2016-Aug-18 05:34N 44°16' E 008°27'4 3.4
2016-Aug-18 04:32N 44°19' E 008°30'1 0.1
2016-Aug-17 17:31N 44°18' E 008°29'0 0.0
2016-Aug-17 16:31N 44°18' E 008°29'0 0.0
2016-Aug-17 15:31N 44°18' E 008°29'0 0.0
2016-Aug-17 14:31N 44°18' E 008°29'0 0.0
2016-Aug-17 13:31N 44°18' E 008°29'0 0.0
2016-Aug-17 12:31N 44°18' E 008°29'0 0.0
2016-Aug-17 11:31N 44°18' E 008°29'0 0.0
2016-Aug-17 10:31N 44°18' E 008°29'0 0.0
2016-Aug-17 09:31N 44°18' E 008°29'0 0.0
2016-Aug-17 08:31N 44°18' E 008°29'0 0.0
2016-Aug-17 07:31N 44°18' E 008°29'0 0.0
2016-Aug-17 06:19N 44°18' E 008°29'0 0.0
2016-Aug-17 05:31N 44°18' E 008°29'0 0.0
2016-Aug-17 04:25N 44°18' E 008°29'0 0.0
2016-Aug-16 12:33N 44°18' E 008°29'0 0.0
2016-Aug-16 11:33N 44°18' E 008°29'2 2.2
2016-Aug-16 10:32N 44°17' E 008°28'1 0.6
2016-Aug-16 09:33N 44°17' E 008°28'2 2.2
2016-Aug-16 08:30N 44°19' E 008°30'0 0.1
2016-Aug-16 07:33N 44°19' E 008°30'1 0.3
2016-Aug-16 04:30N 44°18' E 008°29'0 0.0
2016-Aug-15 17:33N 44°18' E 008°29'0 0.0
2016-Aug-15 16:33N 44°18' E 008°29'0 0.0
2016-Aug-15 15:33N 44°18' E 008°29'0 0.0
2016-Aug-15 14:33N 44°18' E 008°29'0 0.0
2016-Aug-15 13:33N 44°18' E 008°29'0 0.0
2016-Aug-15 12:33N 44°18' E 008°29'  
Track history (hours):
 
Tides and Currents Weather Stations Pressure Air Temp Water Temp Dewpoint Dewpoint Depression Visibility Wind Speed Wind Dir Waves Ship Positions

Citta Di Savona

Last reported at 2016-Aug-25 12:29 UTC. Time now 2016-Aug-25 13:10 UTC.
Position N 44°18' E 008°29'.

Length 31 m; draft 4.2 m.

Type: Tug. MMSI: 247402000.

Date/timePositionNaut miles runAvg speedWind from/ knotsBaromVisibWave heightAir tempDewpointWater temp
2016-Aug-25 12:29N 44°18' E 008°29'0 0.0
2016-Aug-24 17:29N 44°18' E 008°29'0 0.0
2016-Aug-24 16:29N 44°18' E 008°29'0 0.0
2016-Aug-24 15:29N 44°18' E 008°29'0 0.0
2016-Aug-24 14:29N 44°18' E 008°29'0 0.0
2016-Aug-24 13:29N 44°18' E 008°29'0 0.0
2016-Aug-24 12:29N 44°18' E 008°29'0 0.0
2016-Aug-24 11:29N 44°18' E 008°29'0 0.0
2016-Aug-24 10:29N 44°18' E 008°29'0 0.0
2016-Aug-24 09:29N 44°18' E 008°29'0 0.0
2016-Aug-24 08:29N 44°18' E 008°29'0 0.0
2016-Aug-24 07:29N 44°18' E 008°29'0 0.0
2016-Aug-24 06:29N 44°18' E 008°29'0 0.0
2016-Aug-24 04:29N 44°18' E 008°29'0 0.0
2016-Aug-24 03:29N 44°18' E 008°29'0 0.0
2016-Aug-23 21:28N 44°18' E 008°29'0 0.0
2016-Aug-23 20:28N 44°18' E 008°29'0 0.0
2016-Aug-23 19:28N 44°18' E 008°29'0 0.0
2016-Aug-23 18:28N 44°18' E 008°29'0 0.0
2016-Aug-23 17:28N 44°18' E 008°29'0 0.0
2016-Aug-23 16:31N 44°18' E 008°29'0 0.0
2016-Aug-23 15:32N 44°18' E 008°29'0 0.0
2016-Aug-23 14:29N 44°18' E 008°29'0 0.0
2016-Aug-23 13:29N 44°18' E 008°29'0 0.0
2016-Aug-23 12:32N 44°18' E 008°29'0 0.0
2016-Aug-23 11:29N 44°18' E 008°29'0 0.0
2016-Aug-23 03:30N 44°18' E 008°29'2 2.2
2016-Aug-23 02:33N 44°17' E 008°28'2 1.7
2016-Aug-23 01:33N 44°18' E 008°29'1 0.0
2016-Aug-22 13:27N 44°18' E 008°29'0 0.0
2016-Aug-22 12:33N 44°18' E 008°29'0 0.0
2016-Aug-22 11:33N 44°18' E 008°29'0 0.0
2016-Aug-22 10:33N 44°18' E 008°29'1 0.9
2016-Aug-22 09:33N 44°19' E 008°30'3 2.8
2016-Aug-22 08:33N 44°17' E 008°28'0 0.3
2016-Aug-22 07:33N 44°17' E 008°28'1 1.1
2016-Aug-22 06:33N 44°16' E 008°28'3 2.9
2016-Aug-22 05:33N 44°18' E 008°30'1 0.9
2016-Aug-22 04:33N 44°19' E 008°30'1 0.1
2016-Aug-21 21:34N 44°18' E 008°29'0 0.0
2016-Aug-21 20:34N 44°18' E 008°29'0 0.0
2016-Aug-21 19:34N 44°18' E 008°29'0 0.0
2016-Aug-21 18:34N 44°18' E 008°29'0 0.0
2016-Aug-21 17:34N 44°18' E 008°29'0 0.0
2016-Aug-21 16:31N 44°18' E 008°29'0 0.0
2016-Aug-21 15:34N 44°18' E 008°29'0 0.0
2016-Aug-21 14:34N 44°18' E 008°29'0 0.0
2016-Aug-21 13:34N 44°18' E 008°29'0 0.0
2016-Aug-21 12:32N 44°18' E 008°29'0 0.0
2016-Aug-21 07:33N 44°18' E 008°29'0 0.0
2016-Aug-21 06:33N 44°18' E 008°29'0 0.0
2016-Aug-21 05:33N 44°18' E 008°29'0 0.0
2016-Aug-21 04:33N 44°18' E 008°29'0 0.0
2016-Aug-21 03:33N 44°18' E 008°29'0 0.0
2016-Aug-21 02:33N 44°18' E 008°29'0 0.0
2016-Aug-21 01:34N 44°18' E 008°29'0 0.0
2016-Aug-21 00:33N 44°18' E 008°29'0 0.0
2016-Aug-20 23:33N 44°18' E 008°29'0 0.0
2016-Aug-20 22:33N 44°18' E 008°29'0 0.0
2016-Aug-20 21:34N 44°18' E 008°29'0 0.0
2016-Aug-20 12:33N 44°18' E 008°29'0 0.0
2016-Aug-20 11:33N 44°18' E 008°29'0 0.0
2016-Aug-20 10:23N 44°18' E 008°29'0 0.0
2016-Aug-20 09:33N 44°18' E 008°29'0 0.0
2016-Aug-20 08:33N 44°18' E 008°29'0 0.0
2016-Aug-20 07:33N 44°18' E 008°29'0 0.0
2016-Aug-20 06:33N 44°18' E 008°29'0 0.0
2016-Aug-20 05:33N 44°18' E 008°29'0 0.0
2016-Aug-20 04:33N 44°18' E 008°29'0 0.0
2016-Aug-19 17:15N 44°18' E 008°29'0 0.0
2016-Aug-19 16:33N 44°18' E 008°29'1 0.6
2016-Aug-19 15:34N 44°19' E 008°30'1 0.6
2016-Aug-19 14:33N 44°18' E 008°29'0 0.0
2016-Aug-19 13:33N 44°18' E 008°29'0 0.0
2016-Aug-19 12:33N 44°18' E 008°29'0 0.0
2016-Aug-19 07:33N 44°18' E 008°29'0 0.0
2016-Aug-19 06:33N 44°18' E 008°29'0 0.0
2016-Aug-19 05:33N 44°18' E 008°29'1 0.8
2016-Aug-19 04:33N 44°19' E 008°30'1 0.8
2016-Aug-19 03:33N 44°18' E 008°29'0 0.0
2016-Aug-19 02:33N 44°18' E 008°29'0 0.0
2016-Aug-19 01:33N 44°18' E 008°29'0 0.0
2016-Aug-19 00:33N 44°18' E 008°29'0 0.0
2016-Aug-18 23:33N 44°18' E 008°29'0 0.0
2016-Aug-18 22:33N 44°18' E 008°29'0 0.0
2016-Aug-18 21:33N 44°18' E 008°29'0 0.0
2016-Aug-18 20:33N 44°18' E 008°29'0 0.0
2016-Aug-18 19:33N 44°18' E 008°29'0 0.0
2016-Aug-18 18:33N 44°18' E 008°29'0 0.0
2016-Aug-18 17:33N 44°18' E 008°29'0 0.0
2016-Aug-18 16:33N 44°18' E 008°29'0 0.0
2016-Aug-18 15:33N 44°18' E 008°29'0 0.0
2016-Aug-18 14:33N 44°18' E 008°29'0 0.0
2016-Aug-18 13:33N 44°18' E 008°29'0 0.0
2016-Aug-18 12:33N 44°18' E 008°29'0 0.0
2016-Aug-18 11:33N 44°18' E 008°29'1 0.5
2016-Aug-18 10:33N 44°19' E 008°30'1 0.2
2016-Aug-18 07:34N 44°18' E 008°29'1 0.7
2016-Aug-18 06:33N 44°19' E 008°30'3 3.4
2016-Aug-18 05:34N 44°16' E 008°27'4 3.4
2016-Aug-18 04:32N 44°19' E 008°30'1 0.1
2016-Aug-17 17:31N 44°18' E 008°29'0 0.0
2016-Aug-17 16:31N 44°18' E 008°29'0 0.0
2016-Aug-17 15:31N 44°18' E 008°29'0 0.0
2016-Aug-17 14:31N 44°18' E 008°29'0 0.0
2016-Aug-17 13:31N 44°18' E 008°29'0 0.0
2016-Aug-17 12:31N 44°18' E 008°29'0 0.0
2016-Aug-17 11:31N 44°18' E 008°29'0 0.0
2016-Aug-17 10:31N 44°18' E 008°29'0 0.0
2016-Aug-17 09:31N 44°18' E 008°29'0 0.0
2016-Aug-17 08:31N 44°18' E 008°29'0 0.0
2016-Aug-17 07:31N 44°18' E 008°29'0 0.0
2016-Aug-17 06:19N 44°18' E 008°29'0 0.0
2016-Aug-17 05:31N 44°18' E 008°29'0 0.0
2016-Aug-17 04:25N 44°18' E 008°29'0 0.0
2016-Aug-16 12:33N 44°18' E 008°29'0 0.0
2016-Aug-16 11:33N 44°18' E 008°29'2 2.2
2016-Aug-16 10:32N 44°17' E 008°28'1 0.6
2016-Aug-16 09:33N 44°17' E 008°28'2 2.2
2016-Aug-16 08:30N 44°19' E 008°30'0 0.1
2016-Aug-16 07:33N 44°19' E 008°30'1 0.3
2016-Aug-16 04:30N 44°18' E 008°29'0 0.0
2016-Aug-15 17:33N 44°18' E 008°29'0 0.0
2016-Aug-15 16:33N 44°18' E 008°29'0 0.0
2016-Aug-15 15:33N 44°18' E 008°29'0 0.0
2016-Aug-15 14:33N 44°18' E 008°29'0 0.0
2016-Aug-15 13:33N 44°18' E 008°29'0 0.0
2016-Aug-15 12:33N 44°18' E 008°29'  

Dump ship's entire track history